Flight Track Log - Related Links

Times and Time Zones

All times are in EDT time to prevent confusion due to time zone crossing. See the ASQ4663 flight status page for this flight to view local times or setup timezone preferences in your user account.

Time Position Orientation Groundspeed Altitude Reporting Facility
EDT Latitude Longitude Course Direction KTS MPH feet Rate Location/Type
Wed 05:19:44 PM 44.3697 -73.1369 196° South 213 245 6,300  Level Boston Center
Wed 05:20:00 PM 44.2589 -73.2164 196° South  Level FlightAware Approximate
Wed 05:20:44 PM 44.3194 -73.1656 202° Southwest 218 251 9,700  Level Boston Center
Wed 05:21:00 PM 44.1935 -73.2516 190° South  Level FlightAware Approximate
Wed 05:21:44 PM 44.2547 -73.1967 199° South 235 270 11,600  Level Boston Center
Wed 05:22:00 PM 44.1235 -73.2691 190° South  Level FlightAware Approximate
Wed 05:22:44 PM 44.1817 -73.2217 194° South 279 321 14,000  Level Boston Center
Wed 05:23:00 PM 44.0539 -73.2885 196° South  Level FlightAware Approximate
Wed 05:23:44 PM 44.0981 -73.2553 196° South 313 360 16,300  Level Boston Center
Wed 05:24:00 PM 43.9855 -73.3158 196° South  Level FlightAware Approximate
Wed 05:24:44 PM 44.0183 -73.3119 207° Southwest 325 374 18,300  Level Boston Center
Wed 05:25:00 PM 43.9172 -73.3431 196° South  Level FlightAware Approximate
Wed 05:25:44 PM 43.9428 -73.3886 216° Southwest 337 388 19,800  Level Boston Center
Wed 05:26:44 PM 43.8364 -73.4128 189° South 362 417 21,000 950 Climbing Boston Center
Wed 05:27:44 PM 43.7236 -73.4483 193° South 401 461 21,700 500 Climbing Boston Center
Wed 05:28:44 PM 43.5919 -73.4892 193° South 427 491 22,000 150 Climbing Boston Center
Wed 05:29:44 PM 43.4747 -73.5244 192° South 433 498 22,000  Level Boston Center
Wed 05:30:44 PM 43.3578 -73.5622 193° South 433 498 22,000  Level Boston Center
Wed 05:31:44 PM 43.2364 -73.6000 193° South 433 498 22,000  Level Boston Center
Wed 05:32:44 PM 43.1464 -73.6325 195° South 428 493 22,000 -700 Level Boston Center
Wed 05:33:44 PM 43.0250 -73.6869 198° South 428 493 20,600 -2,000 Descending Boston Center
Wed 05:34:44 PM 42.9056 -73.7383 197° South 414 476 18,000 -2,200 Descending Boston Center
Wed 05:35:44 PM 42.8136 -73.7817 199° South 401 461 16,200 -1,000 Descending Boston Center
Wed 05:36:44 PM 42.7086 -73.8275 198° South 401 461 16,000 -100 Descending Boston Center
Wed 05:37:44 PM 42.5956 -73.8728 196° South 395 455 16,000 50 Level Boston Center
Wed 05:38:44 PM 42.5014 -73.9131 198° South 395 455 16,100  Climbing Boston Center
Wed 05:39:44 PM 42.3861 -73.9636 198° South 395 455 16,000 -50 Descending Boston Center
Wed 05:40:44 PM 42.2917 -74.0061 198° South 395 455 16,000  Level Boston Center
Wed 05:41:44 PM 42.1825 -74.0567 199° South 390 449 16,000 -50 Level Boston Center
Wed 05:42:44 PM 42.0819 -74.1017 198° South 385 443 15,900 -50 Descending Boston Center
Wed 05:43:44 PM 41.9811 -74.1436 197° South 385 443 15,900 -700 Level Boston Center
Wed 05:44:44 PM 41.8908 -74.1831 198° South 385 443 14,500 -1,350 Descending Boston Center
Wed 05:45:44 PM 41.7797 -74.2331 199° South 385 443 13,200 -1,250 Descending Boston Center
Wed 05:46:44 PM 41.6917 -74.2722 198° South 380 437 12,000 -1,450 Descending Boston Center
Wed 05:47:44 PM 41.5844 -74.3189 198° South 380 437 10,300 -1,000 Descending Boston Center
Wed 05:48:44 PM 41.5153 -74.3475 197° South 361 415 10,000 -1,300 Descending Boston Center
Wed 05:49:44 PM 41.4292 -74.3864 199° South 294 338 7,700 -1,500 Descending Boston Center
Wed 05:50:44 PM 41.3661 -74.4122 197° South 273 314 7,000 -433 Descending Boston Center
Wed 05:51:21 PM 41.3167 -74.4333 198° South 277 319 7,000  Level New York TRACON
Wed 05:52:21 PM 41.2333 -74.4667 197° South 283 326 7,000 -100 Level New York TRACON
Wed 05:53:21 PM 41.1667 -74.4833 191° South 277 319 6,800 -550 Descending New York TRACON
Wed 05:54:21 PM 41.1000 -74.4167 143° Southeast 280 322 5,900 -893 Descending New York TRACON
Wed 05:55:22 PM 41.0500 -74.3333 128° Southeast 269 310 5,000 -744 Descending New York TRACON
Wed 05:56:22 PM 41.0000 -74.2667 135° Southeast 267 307 4,400 -500 Descending New York TRACON
Wed 05:57:22 PM 40.9833 -74.1667 102° East 260 299 4,000 -450 Descending New York TRACON
Wed 05:58:22 PM 40.9500 -74.0833 118° Southeast 258 297 3,500 -500 Descending New York TRACON
Wed 05:59:22 PM 40.9000 -74.0500 153° Southeast 217 250 3,000 -250 Descending New York TRACON
Wed 06:00:22 PM 40.8500 -74.0667 194° South 176 203 3,000 -250 Level New York TRACON
Wed 06:01:22 PM 40.8167 -74.0833 201° Southwest 154 177 2,500 -500 Descending New York TRACON

Login

Don't have an account? Register now (free) for customized features, flight alerts, and more!